createdAt,value
2018-02-27T00:00:55.022Z,66.60
2018-02-27T00:03:22.447Z,66.60
2018-02-27T00:05:49.965Z,66.50
2018-02-27T00:08:17.413Z,66.40
2018-02-27T00:10:44.825Z,66.30
2018-02-27T00:13:12.349Z,66.20
2018-02-27T00:15:39.783Z,66.70
2018-02-27T00:18:07.252Z,66.10
2018-02-27T00:20:34.714Z,66.00
2018-02-27T00:23:02.154Z,65.90
2018-02-27T00:25:29.562Z,65.80
2018-02-27T00:27:57.095Z,65.60
2018-02-27T00:30:24.525Z,66.00
2018-02-27T00:32:51.964Z,65.70
2018-02-27T00:35:19.521Z,65.50
2018-02-27T00:37:46.928Z,65.50
2018-02-27T00:40:14.440Z,65.30
2018-02-27T00:42:41.993Z,65.30
2018-02-27T00:45:09.400Z,65.20
2018-02-27T00:47:37.011Z,65.10
2018-02-27T00:50:04.472Z,65.10
2018-02-27T00:52:31.905Z,64.90
2018-02-27T00:54:59.384Z,64.80
2018-02-27T00:57:26.797Z,64.70
2018-02-27T00:59:55.003Z,64.70
2018-02-27T01:02:22.420Z,64.70
2018-02-27T01:04:49.908Z,64.60
2018-02-27T01:07:17.488Z,64.60
2018-02-27T01:09:44.908Z,64.60
2018-02-27T01:12:13.128Z,64.50
2018-02-27T01:14:40.588Z,64.50
2018-02-27T01:17:08.017Z,64.40
2018-02-27T01:19:35.563Z,64.40
2018-02-27T01:22:03.097Z,64.40
2018-02-27T01:24:30.548Z,64.30
2018-02-27T01:26:57.968Z,64.40
2018-02-27T01:29:27.047Z,65.20
2018-02-27T01:31:54.634Z,64.30
2018-02-27T01:34:22.840Z,64.40
2018-02-27T01:36:50.263Z,64.20
2018-02-27T01:39:18.463Z,65.00
2018-02-27T01:41:45.893Z,64.20
2018-02-27T01:44:14.094Z,64.30
2018-02-27T01:46:41.560Z,64.30
2018-02-27T01:49:09.005Z,64.30
2018-02-27T01:51:36.428Z,64.30
2018-02-27T01:54:04.644Z,64.50
2018-02-27T01:56:32.105Z,64.40
2018-02-27T01:58:59.532Z,64.40
2018-02-27T02:01:27.021Z,64.40
2018-02-27T02:03:54.469Z,65.20
2018-02-27T02:06:21.926Z,64.50
2018-02-27T02:08:49.487Z,64.50
2018-02-27T02:11:16.906Z,64.50
2018-02-27T02:13:45.097Z,64.60
2018-02-27T02:16:12.520Z,64.60
2018-02-27T02:18:40.752Z,64.70
2018-02-27T02:21:08.176Z,64.70
2018-02-27T02:23:36.482Z,64.70
2018-02-27T02:26:03.899Z,64.70
2018-02-27T02:28:32.113Z,65.00
2018-02-27T02:30:59.537Z,64.90
2018-02-27T02:33:27.084Z,65.00
2018-02-27T02:35:54.560Z,65.10
2018-02-27T02:38:21.991Z,65.20
2018-02-27T02:40:49.619Z,65.10
2018-02-27T02:43:17.036Z,65.30
2018-02-27T02:45:45.251Z,65.50
2018-02-27T02:48:12.705Z,65.50
2018-02-27T02:50:40.173Z,66.30
2018-02-27T02:53:07.620Z,65.50
2018-02-27T02:55:35.060Z,65.30
2018-02-27T02:58:02.636Z,65.30
2018-02-27T03:00:30.045Z,65.30
2018-02-27T03:02:57.480Z,65.40
2018-02-27T03:05:24.909Z,65.40
2018-02-27T03:07:52.340Z,65.40
2018-02-27T03:10:19.821Z,65.50
2018-02-27T03:12:47.230Z,65.60
2018-02-27T03:15:14.741Z,65.80
2018-02-27T03:17:42.196Z,65.90
2018-02-27T03:20:09.652Z,65.90
2018-02-27T03:22:37.120Z,65.90
2018-02-27T03:25:04.676Z,66.00
2018-02-27T03:27:32.108Z,66.10
2018-02-27T03:29:59.585Z,66.30
2018-02-27T03:32:27.142Z,66.30
2018-02-27T03:34:54.646Z,66.50
2018-02-27T03:37:22.166Z,66.60
2018-02-27T03:39:49.612Z,66.60
2018-02-27T03:42:17.035Z,66.70
2018-02-27T03:44:45.260Z,66.90
2018-02-27T03:47:12.697Z,67.00
2018-02-27T03:49:40.157Z,67.00
2018-02-27T03:52:07.719Z,67.00
2018-02-27T03:54:35.132Z,67.10
2018-02-27T03:57:03.363Z,67.20
2018-02-27T03:59:30.806Z,67.30
2018-02-27T04:01:58.238Z,67.20
2018-02-27T04:04:26.424Z,67.50
2018-02-27T04:06:53.909Z,67.50
2018-02-27T04:09:21.332Z,67.50
2018-02-27T04:11:48.759Z,67.60
2018-02-27T04:14:16.188Z,67.70
2018-02-27T04:16:43.752Z,68.20
2018-02-27T04:19:11.185Z,67.90
2018-02-27T04:21:38.644Z,68.00
2018-02-27T04:24:06.093Z,68.70
2018-02-27T04:26:33.521Z,68.10
2018-02-27T04:29:00.957Z,68.10
2018-02-27T04:31:28.429Z,68.20
2018-02-27T04:33:55.833Z,68.30
2018-02-27T04:36:23.352Z,68.50
2018-02-27T04:38:50.805Z,68.50
2018-02-27T04:41:18.260Z,68.40
2018-02-27T04:43:45.696Z,68.50
2018-02-27T04:46:13.140Z,69.40
2018-02-27T04:48:41.366Z,68.60
2018-02-27T04:51:08.805Z,68.80
2018-02-27T04:53:36.265Z,68.80
2018-02-27T04:56:03.721Z,68.80
2018-02-27T04:58:31.896Z,68.90
2018-02-27T05:00:59.356Z,68.90
2018-02-27T05:03:26.785Z,69.00
2018-02-27T05:05:54.264Z,69.00
2018-02-27T05:08:21.716Z,69.10
2018-02-27T05:10:49.136Z,69.00
2018-02-27T05:13:17.332Z,69.20
2018-02-27T05:15:44.805Z,69.10
2018-02-27T05:18:12.220Z,69.30
2018-02-27T05:20:39.824Z,69.30
2018-02-27T05:23:07.334Z,69.40
2018-02-27T05:25:34.699Z,69.50
2018-02-27T05:28:02.897Z,69.70
2018-02-27T05:30:30.333Z,69.60
2018-02-27T05:32:57.765Z,69.70
2018-02-27T05:35:25.185Z,69.90
2018-02-27T05:37:52.730Z,69.90
2018-02-27T05:40:20.132Z,69.90
2018-02-27T05:42:48.364Z,70.70
2018-02-27T05:45:15.818Z,70.10
2018-02-27T05:47:43.235Z,70.10
2018-02-27T05:50:11.451Z,70.30
2018-02-27T05:52:38.869Z,70.30
2018-02-27T05:55:07.065Z,70.30
2018-02-27T05:57:34.588Z,70.30
2018-02-27T06:00:02.108Z,70.30
2018-02-27T06:02:29.656Z,70.30
2018-02-27T06:04:57.167Z,70.40
2018-02-27T06:07:24.578Z,70.50
2018-02-27T06:09:52.008Z,70.60
2018-02-27T06:12:19.492Z,70.60
2018-02-27T06:14:46.941Z,70.70
2018-02-27T06:17:14.361Z,70.70
2018-02-27T06:19:42.583Z,70.70
2018-02-27T06:22:10.012Z,70.70
2018-02-27T06:24:37.492Z,70.70
2018-02-27T06:27:04.921Z,70.90
2018-02-27T06:29:32.362Z,70.90
2018-02-27T06:32:00.576Z,71.10
2018-02-27T06:34:28.135Z,71.10
2018-02-27T06:36:55.601Z,71.10
2018-02-27T06:39:23.151Z,71.30
2018-02-27T06:41:50.553Z,71.40
2018-02-27T06:44:18.168Z,71.60
2018-02-27T06:46:45.577Z,71.70
2018-02-27T06:49:13.088Z,71.70
2018-02-27T06:51:40.544Z,71.80
2018-02-27T06:54:07.981Z,71.80
2018-02-27T06:56:35.408Z,71.90
2018-02-27T06:59:03.616Z,72.10
2018-02-27T07:01:31.094Z,72.10
2018-02-27T07:03:58.542Z,72.20
2018-02-27T07:06:25.956Z,72.20
2018-02-27T07:08:54.152Z,72.50
2018-02-27T07:11:21.579Z,72.50
2018-02-27T07:13:49.093Z,72.50
2018-02-27T07:16:16.526Z,72.60
2018-02-27T07:18:44.008Z,72.60
2018-02-27T07:21:11.475Z,72.80
2018-02-27T07:23:38.897Z,72.90
2018-02-27T07:26:06.374Z,72.60
2018-02-27T07:28:33.788Z,73.10
2018-02-27T07:31:02.022Z,73.20
2018-02-27T07:33:29.547Z,73.10
2018-02-27T07:35:57.041Z,73.20
2018-02-27T07:38:24.460Z,73.30
2018-02-27T07:40:51.893Z,73.30
2018-02-27T07:43:19.366Z,73.50
2018-02-27T07:45:46.773Z,73.50
2018-02-27T07:48:14.236Z,73.60
2018-02-27T07:50:41.648Z,73.70
2018-02-27T07:53:09.081Z,73.80
2018-02-27T07:55:36.555Z,73.90
2018-02-27T07:58:04.012Z,73.80
2018-02-27T08:00:31.444Z,73.90
2018-02-27T08:02:58.922Z,73.90
2018-02-27T08:05:26.384Z,73.90
2018-02-27T08:07:53.813Z,73.80
2018-02-27T08:10:21.298Z,73.80
2018-02-27T08:12:48.729Z,73.70
2018-02-27T08:15:16.165Z,73.50
2018-02-27T08:17:44.384Z,73.40
2018-02-27T08:20:11.806Z,73.30
2018-02-27T08:22:40.012Z,73.00
2018-02-27T08:25:07.468Z,73.00
2018-02-27T08:27:34.895Z,72.80
2018-02-27T08:30:03.088Z,73.20
2018-02-27T08:32:30.556Z,72.50
2018-02-27T08:34:58.020Z,72.20
2018-02-27T08:37:25.481Z,72.00
2018-02-27T08:39:52.919Z,71.80
2018-02-27T08:42:20.392Z,71.60
2018-02-27T08:44:47.852Z,71.40
2018-02-27T08:47:15.404Z,71.10
2018-02-27T08:49:42.864Z,70.80
2018-02-27T08:52:10.324Z,70.80
2018-02-27T08:54:37.780Z,71.40
2018-02-27T08:57:05.334Z,70.40
2018-02-27T08:59:32.797Z,70.10
2018-02-27T09:02:00.228Z,69.60
2018-02-27T09:04:27.779Z,69.40
2018-02-27T09:06:55.243Z,69.40
2018-02-27T09:09:22.792Z,69.30
2018-02-27T09:11:50.212Z,70.00
2018-02-27T09:14:18.464Z,69.10
2018-02-27T09:16:45.991Z,69.10
2018-02-27T09:19:13.604Z,68.90
2018-02-27T09:21:41.015Z,68.70
2018-02-27T09:24:08.456Z,68.30
2018-02-27T09:26:35.898Z,68.20
2018-02-27T09:29:03.372Z,67.80
2018-02-27T09:31:30.777Z,67.00
2018-02-27T09:33:58.226Z,66.40
2018-02-27T09:36:25.660Z,66.00
2018-02-27T09:38:53.198Z,65.70
2018-02-27T09:41:20.680Z,65.40
2018-02-27T09:43:48.214Z,65.10
2018-02-27T09:46:15.630Z,64.60
2018-02-27T09:48:43.845Z,64.10
2018-02-27T09:51:11.263Z,64.00
2018-02-27T09:53:39.477Z,63.70
2018-02-27T09:56:06.900Z,63.70
2018-02-27T09:58:35.092Z,63.30
2018-02-27T10:01:02.525Z,63.30
2018-02-27T10:03:30.944Z,62.70
2018-02-27T10:05:58.355Z,62.00
2018-02-27T10:08:25.798Z,62.50
2018-02-27T10:10:53.233Z,62.50
2018-02-27T10:13:20.673Z,62.20
2018-02-27T10:15:48.339Z,61.80
2018-02-27T10:18:15.788Z,61.50
2018-02-27T10:20:43.247Z,60.60
2018-02-27T10:23:10.663Z,60.20
2018-02-27T10:25:38.979Z,59.40
2018-02-27T10:28:06.382Z,59.40
2018-02-27T10:30:33.893Z,59.00
2018-02-27T10:33:01.356Z,58.50
2018-02-27T10:35:28.794Z,58.00
2018-02-27T10:37:56.324Z,57.90
2018-02-27T10:40:24.548Z,58.20
2018-02-27T10:42:51.999Z,57.60
2018-02-27T10:45:19.466Z,57.20
2018-02-27T10:47:46.912Z,57.00
2018-02-27T10:50:14.383Z,56.90
2018-02-27T10:52:41.808Z,57.00
2018-02-27T10:55:09.260Z,56.80
2018-02-27T10:57:37.566Z,56.30
2018-02-27T11:00:05.025Z,56.30
2018-02-27T11:02:32.491Z,55.90
2018-02-27T11:05:00.035Z,55.30
2018-02-27T11:07:27.517Z,54.80
2018-02-27T11:09:54.988Z,54.60
2018-02-27T11:12:22.611Z,54.20
2018-02-27T11:14:50.074Z,54.10
2018-02-27T11:17:17.526Z,54.00
2018-02-27T11:19:44.997Z,53.90
2018-02-27T11:22:12.453Z,53.60
2018-02-27T11:24:39.883Z,53.40
2018-02-27T11:27:07.301Z,53.20
2018-02-27T11:29:34.741Z,53.20
2018-02-27T11:32:02.169Z,53.30
2018-02-27T11:34:29.628Z,53.20
2018-02-27T11:36:57.068Z,53.40
2018-02-27T11:39:24.556Z,53.20
2018-02-27T11:41:51.995Z,52.70
2018-02-27T11:44:19.461Z,52.40
2018-02-27T11:46:46.884Z,52.10
2018-02-27T11:49:14.373Z,51.80
2018-02-27T11:51:41.826Z,51.50
2018-02-27T11:54:09.252Z,51.10
2018-02-27T11:56:37.560Z,50.00
2018-02-27T11:59:04.960Z,50.00
2018-02-27T12:01:32.384Z,49.70
2018-02-27T12:03:59.814Z,49.40
2018-02-27T12:06:27.288Z,50.20
2018-02-27T12:08:54.741Z,50.10
2018-02-27T12:11:22.200Z,50.50
2018-02-27T12:13:49.660Z,50.40
2018-02-27T12:16:17.112Z,50.10
2018-02-27T12:18:44.579Z,49.80
2018-02-27T12:21:12.009Z,49.50
2018-02-27T12:23:39.490Z,49.40
2018-02-27T12:26:06.906Z,49.50
2018-02-27T12:28:35.121Z,49.20
2018-02-27T12:31:02.558Z,49.10
2018-02-27T12:33:30.055Z,49.10
2018-02-27T12:35:57.481Z,48.50
2018-02-27T12:38:24.976Z,47.90
2018-02-27T12:40:52.509Z,47.20
2018-02-27T12:43:19.960Z,46.80
2018-02-27T12:45:47.416Z,46.40
2018-02-27T12:48:14.824Z,46.60
2018-02-27T12:50:42.336Z,46.50
2018-02-27T12:53:09.790Z,47.40
2018-02-27T12:55:37.246Z,46.60
2018-02-27T12:58:04.676Z,46.50
2018-02-27T13:00:32.881Z,45.70
2018-02-27T13:03:00.335Z,45.70
2018-02-27T13:05:27.807Z,45.10
2018-02-27T13:07:55.251Z,44.40
2018-02-27T13:10:22.809Z,44.40
2018-02-27T13:12:50.209Z,44.70
2018-02-27T13:15:17.732Z,44.90
2018-02-27T13:17:45.184Z,45.20
2018-02-27T13:20:12.661Z,45.40
2018-02-27T13:22:40.100Z,45.60
2018-02-27T13:25:07.564Z,45.70
2018-02-27T13:27:35.010Z,45.50
2018-02-27T13:30:02.490Z,45.40
2018-02-27T13:32:29.936Z,45.30
2018-02-27T13:34:57.398Z,45.50
2018-02-27T13:37:24.838Z,45.40
2018-02-27T13:39:52.256Z,45.40
2018-02-27T13:42:20.460Z,45.30
2018-02-27T13:44:47.937Z,45.20
2018-02-27T13:47:15.486Z,45.10
2018-02-27T13:49:42.901Z,45.10
2018-02-27T13:52:11.102Z,45.60
2018-02-27T13:54:38.520Z,45.60
2018-02-27T13:57:06.048Z,45.90
2018-02-27T13:59:33.598Z,46.10
2018-02-27T14:02:01.001Z,45.90
2018-02-27T14:04:29.237Z,46.80
2018-02-27T14:06:56.675Z,45.90
2018-02-27T14:09:24.137Z,46.60
2018-02-27T14:11:51.603Z,46.00
2018-02-27T14:14:19.052Z,45.70
2018-02-27T14:16:46.536Z,45.30
2018-02-27T14:19:13.958Z,44.70
2018-02-27T14:21:41.393Z,44.30
2018-02-27T14:24:09.598Z,44.50
2018-02-27T14:26:37.069Z,44.50
2018-02-27T14:29:04.509Z,44.40
2018-02-27T14:31:31.935Z,44.10
2018-02-27T14:34:00.156Z,45.00
2018-02-27T14:36:27.584Z,44.90
2018-02-27T14:38:55.002Z,44.50
2018-02-27T14:41:22.520Z,44.00
2018-02-27T14:43:50.075Z,44.20
2018-02-27T14:46:17.481Z,43.30
2018-02-27T14:48:45.666Z,41.60
2018-02-27T14:51:13.879Z,42.30
2018-02-27T14:53:41.345Z,42.20
2018-02-27T14:56:08.801Z,42.30
2018-02-27T14:58:36.262Z,42.60
2018-02-27T15:01:03.688Z,42.80
2018-02-27T15:03:31.115Z,42.40
2018-02-27T15:05:58.635Z,42.30
2018-02-27T15:08:26.082Z,42.50
2018-02-27T15:10:53.549Z,42.40
2018-02-27T15:13:20.991Z,42.40
2018-02-27T15:15:48.463Z,41.70
2018-02-27T15:18:16.868Z,41.70
2018-02-27T15:20:44.456Z,41.00
2018-02-27T15:23:11.888Z,40.30
2018-02-27T15:25:39.342Z,41.00
2018-02-27T15:28:06.771Z,41.90
2018-02-27T15:30:34.188Z,41.60
2018-02-27T15:33:03.149Z,41.90
2018-02-27T15:35:30.577Z,41.90
2018-02-27T15:37:58.004Z,41.90
2018-02-27T15:40:26.217Z,41.70
2018-02-27T15:42:53.641Z,42.10
2018-02-27T15:45:21.152Z,42.30
2018-02-27T15:47:48.609Z,42.00
2018-02-27T15:50:16.034Z,42.60
2018-02-27T15:52:43.506Z,42.80
2018-02-27T15:55:10.969Z,43.60
2018-02-27T15:57:38.392Z,44.40
2018-02-27T16:00:06.600Z,45.10
2018-02-27T16:02:34.042Z,45.00
2018-02-27T16:05:01.464Z,45.20
2018-02-27T16:07:29.649Z,45.50
2018-02-27T16:09:57.852Z,45.40
2018-02-27T16:12:25.280Z,45.40
2018-02-27T16:14:53.484Z,45.20
2018-02-27T16:17:20.957Z,45.20
2018-02-27T16:19:48.402Z,44.90
2018-02-27T16:22:15.821Z,44.50
2018-02-27T16:24:44.029Z,44.80
2018-02-27T16:27:11.454Z,44.80
2018-02-27T16:29:39.636Z,45.30
2018-02-27T16:32:07.956Z,45.70
2018-02-27T16:34:35.377Z,45.70
2018-02-27T16:37:02.880Z,46.10
2018-02-27T16:39:30.418Z,46.40
2018-02-27T16:41:57.884Z,46.80
2018-02-27T16:44:25.311Z,47.70
2018-02-27T16:46:52.801Z,47.40
2018-02-27T16:49:20.244Z,47.60
2018-02-27T16:51:47.661Z,47.80
2018-02-27T16:54:15.905Z,48.40
2018-02-27T16:56:43.326Z,48.40
2018-02-27T16:59:10.764Z,48.40
2018-02-27T17:01:39.001Z,49.40
2018-02-27T17:04:06.485Z,49.40
2018-02-27T17:06:34.736Z,50.20
2018-02-27T17:09:02.174Z,50.20
2018-02-27T17:11:29.629Z,50.80
2018-02-27T17:13:57.170Z,51.20
2018-02-27T17:16:24.628Z,51.70
2018-02-27T17:18:52.189Z,52.30
2018-02-27T17:21:19.609Z,52.70
2018-02-27T17:23:47.845Z,53.60
2018-02-27T17:26:15.274Z,53.60
2018-02-27T17:28:42.733Z,54.10
2018-02-27T17:31:10.190Z,54.60
2018-02-27T17:33:37.592Z,55.20
2018-02-27T17:36:05.022Z,55.90
2018-02-27T17:38:32.466Z,56.60
2018-02-27T17:40:59.929Z,57.10
2018-02-27T17:43:28.167Z,57.40
2018-02-27T17:45:56.382Z,57.80
2018-02-27T17:48:23.840Z,57.80
2018-02-27T17:50:51.289Z,57.90
2018-02-27T17:53:18.735Z,58.90
2018-02-27T17:55:46.197Z,58.40
2018-02-27T17:58:13.649Z,58.70
2018-02-27T18:00:41.094Z,59.10
2018-02-27T18:03:08.500Z,59.20
2018-02-27T18:05:36.725Z,59.60
2018-02-27T18:08:04.316Z,59.50
2018-02-27T18:10:31.735Z,59.90
2018-02-27T18:12:59.192Z,60.20
2018-02-27T18:15:26.614Z,60.20
2018-02-27T18:17:54.810Z,60.40
2018-02-27T18:20:22.237Z,60.30
2018-02-27T18:22:49.754Z,60.50
2018-02-27T18:25:17.173Z,60.70
2018-02-27T18:27:44.600Z,60.70
2018-02-27T18:30:12.144Z,60.70
2018-02-27T18:32:39.694Z,60.70
2018-02-27T18:35:07.121Z,60.80
2018-02-27T18:37:34.686Z,60.80
2018-02-27T18:40:02.104Z,61.00
2018-02-27T18:42:30.423Z,61.20
2018-02-27T18:44:57.838Z,61.20
2018-02-27T18:47:26.073Z,61.20
2018-02-27T18:49:53.513Z,61.20
2018-02-27T18:52:20.992Z,61.30
2018-02-27T18:54:48.424Z,61.40
2018-02-27T18:57:15.828Z,61.60
2018-02-27T18:59:43.357Z,61.90
2018-02-27T19:02:10.801Z,62.30
2018-02-27T19:04:38.234Z,62.50
2018-02-27T19:07:05.685Z,62.80
2018-02-27T19:09:33.877Z,63.80
2018-02-27T19:12:01.354Z,63.80
2018-02-27T19:14:28.800Z,64.40
2018-02-27T19:16:56.266Z,64.70
2018-02-27T19:19:23.712Z,65.20
2018-02-27T19:21:51.131Z,65.70
2018-02-27T19:24:19.365Z,66.20
2018-02-27T19:26:46.798Z,66.20
2018-02-27T19:29:14.273Z,66.40
2018-02-27T19:31:41.706Z,66.80
2018-02-27T19:34:09.129Z,66.90
2018-02-27T19:36:37.334Z,67.10
2018-02-27T19:39:04.812Z,67.10
2018-02-27T19:41:32.245Z,67.30
2018-02-27T19:43:59.696Z,67.50
2018-02-27T19:46:27.157Z,67.60
2018-02-27T19:48:55.364Z,68.10
2018-02-27T19:51:22.803Z,68.00
2018-02-27T19:53:50.261Z,68.20
2018-02-27T19:56:17.669Z,68.40
2018-02-27T19:58:45.103Z,68.50
2018-02-27T20:01:12.544Z,68.40
2018-02-27T20:03:39.993Z,68.60
2018-02-27T20:06:07.463Z,68.70
2018-02-27T20:08:34.933Z,68.70
2018-02-27T20:11:02.377Z,68.60
2018-02-27T20:13:29.815Z,69.40
2018-02-27T20:15:57.284Z,68.90
2018-02-27T20:18:24.834Z,69.00
2018-02-27T20:20:52.333Z,69.10
2018-02-27T20:23:25.378Z,69.20
2018-02-27T20:25:52.822Z,69.30
2018-02-27T20:28:25.881Z,69.20
2018-02-27T20:30:54.204Z,70.50
2018-02-27T20:33:21.767Z,69.50
2018-02-27T20:35:49.177Z,69.70
2018-02-27T20:41:16.277Z,69.90
2018-02-27T20:43:43.719Z,69.90
2018-02-27T20:46:12.017Z,70.20
2018-02-27T20:48:39.480Z,70.20
2018-02-27T20:51:06.929Z,70.30
2018-02-27T20:53:34.494Z,70.30
2018-02-27T20:56:01.904Z,70.30
2018-02-27T20:58:29.352Z,70.30
2018-02-27T21:00:56.814Z,70.30
2018-02-27T21:03:24.242Z,70.30
2018-02-27T21:05:51.789Z,70.40
2018-02-27T21:08:19.235Z,70.60
2018-02-27T21:10:46.705Z,70.70
2018-02-27T21:13:14.175Z,70.70
2018-02-27T21:15:41.584Z,70.80
2018-02-27T21:18:09.122Z,70.20
2018-02-27T21:20:36.500Z,71.00
2018-02-27T21:23:03.932Z,71.10
2018-02-27T21:25:31.469Z,71.00
2018-02-27T21:27:58.925Z,71.10
2018-02-27T21:30:26.532Z,71.30
2018-02-27T21:32:53.937Z,71.10
2018-02-27T21:35:21.482Z,71.30
2018-02-27T21:37:48.941Z,71.30
2018-02-27T21:40:16.405Z,71.30
2018-02-27T21:42:43.956Z,71.40
2018-02-27T21:45:11.515Z,71.40
2018-02-27T21:47:38.936Z,71.40
2018-02-27T21:50:07.264Z,71.60
2018-02-27T21:52:34.764Z,71.50
2018-02-27T21:55:02.157Z,71.50
2018-02-27T21:57:29.601Z,71.60
2018-02-27T21:59:57.036Z,71.50
2018-02-27T22:02:25.355Z,71.50
2018-02-27T22:04:52.790Z,71.50
2018-02-27T22:07:20.323Z,71.50
2018-02-27T22:09:47.876Z,71.60
2018-02-27T22:12:15.405Z,71.40
2018-02-27T22:14:42.877Z,71.40
2018-02-27T22:17:10.315Z,71.40
2018-02-27T22:19:37.781Z,71.30
2018-02-27T22:22:05.220Z,71.30
2018-02-27T22:24:32.649Z,71.10
2018-02-27T22:27:00.239Z,71.20
2018-02-27T22:29:27.689Z,71.20
2018-02-27T22:31:55.124Z,71.30
2018-02-27T22:34:22.612Z,71.30
2018-02-27T22:36:50.168Z,71.40
2018-02-27T22:39:19.684Z,71.50
2018-02-27T22:41:47.230Z,71.60
2018-02-27T22:44:14.648Z,71.60
2018-02-27T22:46:42.861Z,71.70
2018-02-27T22:49:10.280Z,71.60
2018-02-27T22:51:38.485Z,71.80
2018-02-27T22:54:05.915Z,71.80
2018-02-27T22:56:34.157Z,71.90
2018-02-27T22:59:01.568Z,71.90
2018-02-27T23:01:28.997Z,71.90
2018-02-27T23:03:57.216Z,71.80
2018-02-27T23:06:24.688Z,71.80
2018-02-27T23:08:52.141Z,71.90
2018-02-27T23:11:19.588Z,71.80
2018-02-27T23:13:47.059Z,71.90
2018-02-27T23:16:14.547Z,71.90
2018-02-27T23:18:41.993Z,71.80
2018-02-27T23:21:09.420Z,71.90
2018-02-27T23:23:36.970Z,72.00
2018-02-27T23:26:25.793Z,72.00
2018-02-27T23:28:55.997Z,71.90
2018-02-27T23:31:23.671Z,72.10
2018-02-27T23:33:56.159Z,72.30
2018-02-27T23:36:24.464Z,72.30
2018-02-27T23:38:51.888Z,73.00
2018-02-27T23:41:20.146Z,72.60
2018-02-27T23:43:47.674Z,72.60
2018-02-27T23:46:15.133Z,72.60
2018-02-27T23:48:42.681Z,72.70
2018-02-27T23:51:10.117Z,72.70
2018-02-27T23:53:37.550Z,72.70
2018-02-27T23:56:05.758Z,72.90
2018-02-27T23:58:33.219Z,72.90
